Filed Under (Life) by Sean on February 21st, 2008 at 12:29 am

Well we had some definitively crappy weather here in Houston (METAR below) so no eclipse. Nada. Perhaps getting in a plane and flying around above the clouds would have yielded a better view. BUT, that would require I pull myself away from blogging, twittering or such other worldly endeavors. Maybe I’ll have all the CSS refactored by the next one in 2010. Hell maybe I’ll be twittering from the moon in 2010. :)

METAR as promised (you know you love it):

KHOU 210618Z 11003KT 8SM FEW003 OVC009 19/18 A2991 RMK AO2 CIG 006V012

Tags: , , , , ,



Post a comment

Name: 
Email: 
URL: 
Comments: